Zim Vancouver — A8LK5 — position and weather

sailwx.info

Track history (hours):
 
Tides and Currents Weather Stations Pressure Air Temp Water Temp Dewpoint Dewpoint Depression Visibility Wind Speed Wind Dir Waves Ship Positions

Zim Vancouver

Last reported at 2014-Nov-23 19:32 UTC. Time now 2014-Nov-24 12:23 UTC.
Position N 40°55' E 028°38'.

Length 260 m; draft 10.2 m.

Type: Ship. MMSI: 636013214.

Date/timePositionNaut miles runAvg speedWind from/ knotsBaromVisibWave heightAir tempDewpointWater temp
2014-Nov-23 19:32N 40°55' E 028°38'10 0.9
2014-Nov-23 08:33N 40°56' E 028°50'  
2014-Nov-20 20:33N 44°17' E 034°17'1919.0
2014-Nov-20 19:33N 44°18' E 034°44'1918.9
2014-Nov-20 18:33N 44°18' E 035°10'2119.0
2014-Nov-20 17:26N 44°16' E 035°40'1818.9
2014-Nov-20 16:30N 44°14' E 036°05'1918.9
2014-Nov-20 15:31N 44°13' E 036°30'2018.4
2014-Nov-20 14:25N 44°17' E 036°58'2418.8
2014-Nov-20 13:08N 44°28' E 037°28'2012.0
2014-Nov-20 11:26N 44°35' E 037°55'0 0.1
2014-Nov-20 10:32N 44°35' E 037°55'0 0.1
2014-Nov-20 09:32N 44°35' E 037°55'0 0.0
2014-Nov-20 08:29N 44°35' E 037°55'0 0.1
2014-Nov-20 07:32N 44°35' E 037°55'0 0.0
2014-Nov-20 06:32N 44°35' E 037°55'0 0.1
2014-Nov-20 05:32N 44°35' E 037°55'0 0.1
2014-Nov-20 04:32N 44°35' E 037°55'0 0.0
2014-Nov-20 03:29N 44°35' E 037°54'0 0.0
2014-Nov-20 02:32N 44°35' E 037°54'0 0.0
2014-Nov-20 01:32N 44°35' E 037°54'0 0.0
2014-Nov-20 00:32N 44°35' E 037°54'0 0.0
2014-Nov-19 23:32N 44°35' E 037°54'0 0.0
2014-Nov-19 22:29N 44°35' E 037°55'0 0.0
2014-Nov-19 21:32N 44°35' E 037°55'0 0.0
2014-Nov-19 20:32N 44°35' E 037°55'0 0.0
2014-Nov-19 19:32N 44°35' E 037°55'1 0.5
2014-Nov-19 18:34N 44°35' E 037°54'4 3.6
2014-Nov-19 17:34N 44°37' E 037°50'7 6.8
2014-Nov-19 16:31N 44°44' E 037°47'0 0.0
2014-Nov-19 15:31N 44°44' E 037°47'0 0.0
2014-Nov-19 14:31N 44°44' E 037°47'0 0.0
2014-Nov-19 13:31N 44°44' E 037°47'0 0.0
2014-Nov-19 12:31N 44°44' E 037°47'0 0.0
2014-Nov-19 11:31N 44°44' E 037°47'0 0.0
2014-Nov-19 10:31N 44°44' E 037°47'0 0.0
2014-Nov-19 09:31N 44°44' E 037°47'0 0.0
2014-Nov-19 08:31N 44°44' E 037°47'0 0.0
2014-Nov-19 07:31N 44°44' E 037°47'0 0.0
2014-Nov-19 06:31N 44°44' E 037°47'0 0.0
2014-Nov-19 05:31N 44°44' E 037°47'0 0.0
2014-Nov-19 04:31N 44°44' E 037°47'0 0.0
2014-Nov-19 03:31N 44°44' E 037°47'0 0.0
2014-Nov-19 02:31N 44°44' E 037°47'0 0.0
2014-Nov-19 01:31N 44°44' E 037°47'0 0.0
2014-Nov-19 00:31N 44°44' E 037°47'0 0.0
2014-Nov-18 23:31N 44°44' E 037°47'0 0.0
2014-Nov-18 22:31N 44°44' E 037°47'0 0.0
2014-Nov-18 21:31N 44°44' E 037°47'0 0.0
2014-Nov-18 20:31N 44°44' E 037°47'0 0.0
2014-Nov-18 19:31N 44°44' E 037°47'0 0.0
2014-Nov-18 18:31N 44°44' E 037°47'0 0.0
2014-Nov-18 17:31N 44°44' E 037°47'0 0.0
2014-Nov-18 16:31N 44°44' E 037°47'0 0.0
2014-Nov-18 15:31N 44°44' E 037°47'0 0.0
2014-Nov-18 14:31N 44°44' E 037°47'0 0.0
2014-Nov-18 13:31N 44°44' E 037°47'0 0.0
2014-Nov-18 12:31N 44°44' E 037°47'0 0.0
2014-Nov-18 08:31N 44°44' E 037°47'0 0.0
2014-Nov-18 07:31N 44°44' E 037°47'0 0.0
2014-Nov-18 06:31N 44°44' E 037°47'0 0.0
2014-Nov-18 05:31N 44°44' E 037°47'0 0.0
2014-Nov-18 04:31N 44°44' E 037°47'0 0.0
2014-Nov-18 03:31N 44°44' E 037°47'0 0.0
2014-Nov-18 02:31N 44°44' E 037°47'0 0.0
2014-Nov-18 01:31N 44°44' E 037°47'0 0.0
2014-Nov-18 00:31N 44°44' E 037°47'0 0.0
2014-Nov-17 23:31N 44°44' E 037°47'0 0.0
2014-Nov-17 22:28N 44°44' E 037°47'0 0.0
2014-Nov-17 21:31N 44°44' E 037°47'0 0.0
2014-Nov-17 20:31N 44°44' E 037°47'0 0.0
2014-Nov-17 19:31N 44°44' E 037°47'0 0.0
2014-Nov-17 18:31N 44°44' E 037°47'0 0.0
2014-Nov-17 17:31N 44°44' E 037°47'0 0.0
2014-Nov-17 16:31N 44°44' E 037°47'1 1.1
2014-Nov-17 15:34N 44°43' E 037°48'7 6.5
2014-Nov-17 14:34N 44°37' E 037°51'4 4.2
2014-Nov-17 13:33N 44°33' E 037°51'1414.4
2014-Nov-17 12:33N 44°26' E 037°33'1716.7
2014-Nov-17 11:33N 44°18' E 037°12'7317.2
2014-Nov-17 07:18N 43°45' E 035°42'1716.9
2014-Nov-17 06:18N 43°37' E 035°21'29116.4
2014-Nov-16 12:33N 41°25' E 029°30'1717.2
2014-Nov-16 11:33N 41°15' E 029°11'246 5.6
2014-Nov-14 15:33N 38°08' E 025°44'1514.5
2014-Nov-14 14:32N 37°54' E 025°46'2814.0
2014-Nov-14 12:33N 37°27' E 025°55'1313.5
2014-Nov-14 11:34N 37°20' E 026°09'1413.6
2014-Nov-14 10:33N 37°11' E 026°23'4213.4
2014-Nov-14 07:26N 36°35' E 026°48'  
Track history (hours):
 
Tides and Currents Weather Stations Pressure Air Temp Water Temp Dewpoint Dewpoint Depression Visibility Wind Speed Wind Dir Waves Ship Positions

Zim Vancouver

Last reported at 2014-Nov-23 19:32 UTC. Time now 2014-Nov-24 12:23 UTC.
Position N 40°55' E 028°38'.

Length 260 m; draft 10.2 m.

Type: Ship. MMSI: 636013214.

Date/timePositionNaut miles runAvg speedWind from/ knotsBaromVisibWave heightAir tempDewpointWater temp
2014-Nov-23 19:32N 40°55' E 028°38'10 0.9
2014-Nov-23 08:33N 40°56' E 028°50'  
2014-Nov-20 20:33N 44°17' E 034°17'1919.0
2014-Nov-20 19:33N 44°18' E 034°44'1918.9
2014-Nov-20 18:33N 44°18' E 035°10'2119.0
2014-Nov-20 17:26N 44°16' E 035°40'1818.9
2014-Nov-20 16:30N 44°14' E 036°05'1918.9
2014-Nov-20 15:31N 44°13' E 036°30'2018.4
2014-Nov-20 14:25N 44°17' E 036°58'2418.8
2014-Nov-20 13:08N 44°28' E 037°28'2012.0
2014-Nov-20 11:26N 44°35' E 037°55'0 0.1
2014-Nov-20 10:32N 44°35' E 037°55'0 0.1
2014-Nov-20 09:32N 44°35' E 037°55'0 0.0
2014-Nov-20 08:29N 44°35' E 037°55'0 0.1
2014-Nov-20 07:32N 44°35' E 037°55'0 0.0
2014-Nov-20 06:32N 44°35' E 037°55'0 0.1
2014-Nov-20 05:32N 44°35' E 037°55'0 0.1
2014-Nov-20 04:32N 44°35' E 037°55'0 0.0
2014-Nov-20 03:29N 44°35' E 037°54'0 0.0
2014-Nov-20 02:32N 44°35' E 037°54'0 0.0
2014-Nov-20 01:32N 44°35' E 037°54'0 0.0
2014-Nov-20 00:32N 44°35' E 037°54'0 0.0
2014-Nov-19 23:32N 44°35' E 037°54'0 0.0
2014-Nov-19 22:29N 44°35' E 037°55'0 0.0
2014-Nov-19 21:32N 44°35' E 037°55'0 0.0
2014-Nov-19 20:32N 44°35' E 037°55'0 0.0
2014-Nov-19 19:32N 44°35' E 037°55'1 0.5
2014-Nov-19 18:34N 44°35' E 037°54'4 3.6
2014-Nov-19 17:34N 44°37' E 037°50'7 6.8
2014-Nov-19 16:31N 44°44' E 037°47'0 0.0
2014-Nov-19 15:31N 44°44' E 037°47'0 0.0
2014-Nov-19 14:31N 44°44' E 037°47'0 0.0
2014-Nov-19 13:31N 44°44' E 037°47'0 0.0
2014-Nov-19 12:31N 44°44' E 037°47'0 0.0
2014-Nov-19 11:31N 44°44' E 037°47'0 0.0
2014-Nov-19 10:31N 44°44' E 037°47'0 0.0
2014-Nov-19 09:31N 44°44' E 037°47'0 0.0
2014-Nov-19 08:31N 44°44' E 037°47'0 0.0
2014-Nov-19 07:31N 44°44' E 037°47'0 0.0
2014-Nov-19 06:31N 44°44' E 037°47'0 0.0
2014-Nov-19 05:31N 44°44' E 037°47'0 0.0
2014-Nov-19 04:31N 44°44' E 037°47'0 0.0
2014-Nov-19 03:31N 44°44' E 037°47'0 0.0
2014-Nov-19 02:31N 44°44' E 037°47'0 0.0
2014-Nov-19 01:31N 44°44' E 037°47'0 0.0
2014-Nov-19 00:31N 44°44' E 037°47'0 0.0
2014-Nov-18 23:31N 44°44' E 037°47'0 0.0
2014-Nov-18 22:31N 44°44' E 037°47'0 0.0
2014-Nov-18 21:31N 44°44' E 037°47'0 0.0
2014-Nov-18 20:31N 44°44' E 037°47'0 0.0
2014-Nov-18 19:31N 44°44' E 037°47'0 0.0
2014-Nov-18 18:31N 44°44' E 037°47'0 0.0
2014-Nov-18 17:31N 44°44' E 037°47'0 0.0
2014-Nov-18 16:31N 44°44' E 037°47'0 0.0
2014-Nov-18 15:31N 44°44' E 037°47'0 0.0
2014-Nov-18 14:31N 44°44' E 037°47'0 0.0
2014-Nov-18 13:31N 44°44' E 037°47'0 0.0
2014-Nov-18 12:31N 44°44' E 037°47'0 0.0
2014-Nov-18 08:31N 44°44' E 037°47'0 0.0
2014-Nov-18 07:31N 44°44' E 037°47'0 0.0
2014-Nov-18 06:31N 44°44' E 037°47'0 0.0
2014-Nov-18 05:31N 44°44' E 037°47'0 0.0
2014-Nov-18 04:31N 44°44' E 037°47'0 0.0
2014-Nov-18 03:31N 44°44' E 037°47'0 0.0
2014-Nov-18 02:31N 44°44' E 037°47'0 0.0
2014-Nov-18 01:31N 44°44' E 037°47'0 0.0
2014-Nov-18 00:31N 44°44' E 037°47'0 0.0
2014-Nov-17 23:31N 44°44' E 037°47'0 0.0
2014-Nov-17 22:28N 44°44' E 037°47'0 0.0
2014-Nov-17 21:31N 44°44' E 037°47'0 0.0
2014-Nov-17 20:31N 44°44' E 037°47'0 0.0
2014-Nov-17 19:31N 44°44' E 037°47'0 0.0
2014-Nov-17 18:31N 44°44' E 037°47'0 0.0
2014-Nov-17 17:31N 44°44' E 037°47'0 0.0
2014-Nov-17 16:31N 44°44' E 037°47'1 1.1
2014-Nov-17 15:34N 44°43' E 037°48'7 6.5
2014-Nov-17 14:34N 44°37' E 037°51'4 4.2
2014-Nov-17 13:33N 44°33' E 037°51'1414.4
2014-Nov-17 12:33N 44°26' E 037°33'1716.7
2014-Nov-17 11:33N 44°18' E 037°12'7317.2
2014-Nov-17 07:18N 43°45' E 035°42'1716.9
2014-Nov-17 06:18N 43°37' E 035°21'29116.4
2014-Nov-16 12:33N 41°25' E 029°30'1717.2
2014-Nov-16 11:33N 41°15' E 029°11'246 5.6
2014-Nov-14 15:33N 38°08' E 025°44'1514.5
2014-Nov-14 14:32N 37°54' E 025°46'2814.0
2014-Nov-14 12:33N 37°27' E 025°55'1313.5
2014-Nov-14 11:34N 37°20' E 026°09'1413.6
2014-Nov-14 10:33N 37°11' E 026°23'4213.4
2014-Nov-14 07:26N 36°35' E 026°48'  

Dump ship's entire track history